Time;durP1;ratioP1;P1;durP2;ratioP2;P2;SDS_P1;SDS_P2;PMS_P1;PMS_P2;Temp;Humidity;BMP_temperature;BMP_pressure;BME280_temperature;BME280_humidity;BME280_pressure;Samples;Min_cycle;Max_cycle;Signal;HPM_P1;HPM_P2
2022/03/05 00:01:10;;;;;;;19.57;12.37;;;;;;;1.71;70.86;96936.81;5040104;28;20409;-95
2022/03/05 00:03:38;;;;;;;19.80;12.37;;;;;;;1.59;70.51;96914.00;5074705;28;20696;-90
2022/03/05 00:06:05;;;;;;;17.67;11.83;;;;;;;1.58;70.29;96933.59;5056700;28;20194;-94
2022/03/05 00:08:35;;;;;;;17.23;10.90;;;;;;;1.80;70.10;96940.94;5074179;28;20252;-93
2022/03/05 00:11:04;;;;;;;19.07;12.13;;;;;;;1.82;70.23;96900.94;5040531;28;20230;-92
2022/03/05 00:13:31;;;;;;;17.93;11.97;;;;;;;2.17;68.68;96929.34;5055860;28;20188;-93
2022/03/05 00:16:00;;;;;;;19.40;12.17;;;;;;;2.40;67.76;96934.97;5073775;28;20195;-94
2022/03/05 00:18:32;;;;;;;17.53;11.40;;;;;;;2.24;67.05;96900.31;5055227;28;20200;-94
2022/03/05 00:21:01;;;;;;;21.07;11.13;;;;;;;2.03;68.19;96890.41;5074491;28;20622;-94
2022/03/05 00:23:28;;;;;;;16.93;11.43;;;;;;;1.99;68.70;96925.38;5056785;28;20193;-93
2022/03/05 00:25:58;;;;;;;20.93;12.90;;;;;;;1.37;69.16;96825.84;5057056;28;20249;-93
2022/03/05 00:28:27;;;;;;;20.33;11.10;;;;;;;2.25;68.88;96942.84;5058009;28;20282;-94
2022/03/05 00:30:58;;;;;;;18.23;12.17;;;;;;;1.82;68.93;96895.81;5056424;28;20265;-92
2022/03/05 00:33:27;;;;;;;21.27;12.00;;;;;;;1.99;68.66;96930.47;5074836;28;20236;-91
2022/03/05 00:35:55;;;;;;;21.43;13.03;;;;;;;1.80;69.72;96929.03;5056962;28;20202;-92
2022/03/05 00:38:26;;;;;;;19.60;13.00;;;;;;;1.52;70.05;96892.84;5074511;28;20204;-92
2022/03/05 00:40:53;;;;;;;22.00;14.20;;;;;;;1.69;69.91;96930.88;5073504;28;20203;-91
2022/03/05 00:43:22;;;;;;;22.27;13.40;;;;;;;1.65;70.82;96944.53;5040499;28;20235;-94
2022/03/05 00:45:50;;;;;;;20.87;12.47;;;;;;;1.54;70.16;96914.09;5041261;28;20210;-93
2022/03/05 00:48:18;;;;;;;23.87;13.10;;;;;;;1.64;69.44;96895.22;5043012;28;20219;-90
2022/03/05 00:50:48;;;;;;;23.47;12.77;;;;;;;1.94;69.38;96914.38;5072287;28;20185;-91
2022/03/05 00:53:18;;;;;;;20.60;12.90;;;;;;;1.81;67.75;96892.44;5055346;28;20203;-92
2022/03/05 00:55:47;;;;;;;21.40;14.17;;;;;;;1.82;67.98;96911.13;5073318;28;20220;-92
2022/03/05 00:58:14;;;;;;;23.83;14.20;;;;;;;1.61;69.01;96936.09;5058853;28;20196;-92
2022/03/05 01:00:46;;;;;;;21.17;13.70;;;;;;;1.34;70.51;96933.88;5047483;28;20284;-94
2022/03/05 01:03:13;;;;;;;22.00;13.83;;;;;;;0.94;71.45;96873.16;5058697;28;20710;-93
2022/03/05 01:05:43;;;;;;;27.77;16.93;;;;;;;1.04;71.44;96902.78;5058223;28;20443;-91
2022/03/05 01:08:12;;;;;;;32.37;17.90;;;;;;;0.85;71.31;96874.09;5065243;28;20227;-91
2022/03/05 01:10:39;;;;;;;20.90;14.23;;;;;;;1.05;70.84;96920.59;5063347;28;20200;-91
2022/03/05 01:13:07;;;;;;;27.13;13.90;;;;;;;0.88;71.31;96902.09;5070525;28;20597;-93
2022/03/05 01:15:34;;;;;;;21.23;13.37;;;;;;;0.62;72.08;96860.72;5056647;28;20756;-94
2022/03/05 01:18:02;;;;;;;23.47;14.43;;;;;;;0.93;71.80;96918.19;5072943;28;20188;-94
2022/03/05 01:20:31;;;;;;;26.33;14.80;;;;;;;0.77;70.81;96873.31;5059997;28;20207;-93
2022/03/05 01:22:58;;;;;;;19.73;13.33;;;;;;;1.22;70.94;96920.41;5075150;28;20695;-94
2022/03/05 01:25:28;;;;;;;21.00;12.53;;;;;;;1.46;69.80;96933.72;5056393;28;20200;-93
2022/03/05 01:27:55;;;;;;;23.97;12.70;;;;;;;1.31;69.49;96885.47;5071285;28;20257;-95
2022/03/05 01:30:22;;;;;;;21.10;13.37;;;;;;;1.45;68.04;96875.91;5039462;28;20676;-93
2022/03/05 01:32:50;;;;;;;20.07;12.50;;;;;;;1.67;68.28;96887.50;5054884;28;20254;-92
2022/03/05 01:35:22;;;;;;;19.70;12.07;;;;;;;1.58;67.59;96862.16;5072397;28;20208;-92
2022/03/05 01:37:51;;;;;;;19.27;12.67;;;;;;;1.98;67.65;96907.53;5055924;28;20269;-94
2022/03/05 01:40:19;;;;;;;26.40;13.63;;;;;;;1.60;67.07;96860.41;5070801;28;20678;-93
2022/03/05 01:42:52;;;;;;;23.70;14.60;;;;;;;2.03;66.95;96905.72;5040521;28;20203;-94
2022/03/05 01:45:20;;;;;;;23.80;14.00;;;;;;;1.69;67.05;96867.06;5054428;28;20705;-93
2022/03/05 01:47:50;;;;;;;20.83;13.40;;;;;;;1.69;67.39;96858.59;5055986;28;20215;-93
2022/03/05 01:50:17;;;;;;;24.17;15.57;;;;;;;2.03;67.50;96915.94;5053892;28;20196;-94
2022/03/05 01:52:44;;;;;;;28.37;16.77;;;;;;;1.90;67.11;96886.34;5037483;28;20232;-92
2022/03/05 01:55:12;;;;;;;23.97;14.73;;;;;;;1.79;67.58;96911.19;5039033;28;20257;-92
2022/03/05 01:57:40;;;;;;;27.07;15.27;;;;;;;1.62;67.78;96916.53;5054122;28;20188;-91
2022/03/05 02:00:13;;;;;;;25.30;15.03;;;;;;;1.42;68.97;96916.75;5056021;28;20196;-94
2022/03/05 02:03:05;;;;;;;22.67;14.27;;;;;;;1.52;68.32;96926.00;5070494;28;20251;-93
2022/03/05 02:05:32;;;;;;;23.13;13.83;;;;;;;1.61;68.44;96919.94;5037621;28;20254;-93
2022/03/05 02:08:00;;;;;;;21.27;13.20;;;;;;;1.57;68.23;96888.50;5037669;28;20238;-93
2022/03/05 02:10:29;;;;;;;18.87;12.67;;;;;;;1.45;67.51;96901.44;5054225;28;20211;-90
2022/03/05 02:12:58;;;;;;;20.33;12.83;;;;;;;0.81;68.22;96801.06;5037766;28;20224;-93
2022/03/05 02:15:25;;;;;;;21.67;13.37;;;;;;;1.11;69.39;96928.19;5053253;28;20215;-92
2022/03/05 02:17:55;;;;;;;17.27;11.57;;;;;;;0.92;70.23;96897.81;5071743;28;20192;-91
2022/03/05 02:20:23;;;;;;;19.93;12.77;;;;;;;1.19;70.48;96925.56;5054206;28;20189;-94
2022/03/05 02:22:52;;;;;;;19.63;12.47;;;;;;;1.47;69.44;96926.91;5036986;28;20193;-92
2022/03/05 02:25:19;;;;;;;16.53;12.13;;;;;;;1.37;69.82;96933.00;5054768;28;20303;-93
2022/03/05 02:27:47;;;;;;;19.90;12.63;;;;;;;0.90;70.11;96877.44;5071843;28;20216;-93
2022/03/05 02:30:15;;;;;;;21.93;12.00;;;;;;;0.41;70.54;96802.38;5060136;28;20196;-92
2022/03/05 02:32:43;;;;;;;20.87;12.27;;;;;;;0.79;70.45;96897.94;5049425;28;20243;-91
2022/03/05 02:35:11;;;;;;;19.30;12.07;;;;;;;0.70;69.77;96889.56;5035479;28;20206;-91
2022/03/05 02:37:40;;;;;;;17.63;11.30;;;;;;;0.83;70.30;96906.38;5053438;28;20206;-92
2022/03/05 02:40:08;;;;;;;20.13;11.20;;;;;;;0.73;71.51;96900.53;5019494;28;20281;-92
2022/03/05 02:42:35;;;;;;;17.57;10.50;;;;;;;1.10;71.10;96918.84;5018486;28;20198;-93
2022/03/05 02:45:03;;;;;;;18.77;11.50;;;;;;;1.17;70.26;96915.38;5033919;28;20194;-94
2022/03/05 02:47:31;;;;;;;19.33;11.27;;;;;;;1.00;69.88;96876.47;5019255;28;20194;-91
2022/03/05 02:49:58;;;;;;;18.77;10.87;;;;;;;1.15;69.23;96891.59;5034208;28;20198;-93
2022/03/05 02:52:25;;;;;;;19.37;11.73;;;;;;;1.54;69.88;96926.84;5051943;28;20217;-92
2022/03/05 02:54:52;;;;;;;17.97;11.90;;;;;;;1.49;69.62;96931.13;5033953;28;20277;-93
2022/03/05 02:57:20;;;;;;;18.63;11.67;;;;;;;1.39;68.23;96893.84;5052062;28;20261;-92
2022/03/05 02:59:48;;;;;;;18.23;11.83;;;;;;;1.60;68.99;96931.00;5035620;28;20566;-93
2022/03/05 03:02:17;;;;;;;20.30;12.70;;;;;;;1.36;69.23;96901.53;5018402;28;20206;-92
2022/03/05 03:04:44;;;;;;;21.37;13.07;;;;;;;0.91;70.50;96883.38;5019183;28;20202;-92
2022/03/05 03:07:12;;;;;;;18.80;12.87;;;;;;;1.10;70.10;96934.16;5034761;28;20201;-91
2022/03/05 03:09:44;;;;;;;20.70;12.80;;;;;;;0.98;70.19;96908.78;5059544;28;20190;-91
2022/03/05 03:12:12;;;;;;;25.47;13.63;;;;;;;1.13;70.36;96938.38;5040209;28;20218;-93
2022/03/05 03:14:39;;;;;;;19.13;13.40;;;;;;;1.23;70.73;96938.25;5090658;28;20198;-92
2022/03/05 03:17:07;;;;;;;23.30;14.30;;;;;;;1.13;69.84;96938.38;5054944;28;20417;-95
2022/03/05 03:19:36;;;;;;;23.07;15.07;;;;;;;0.91;71.98;96945.38;5024416;28;20200;-93
2022/03/05 03:22:03;;;;;;;21.80;13.37;;;;;;;0.76;72.13;96918.34;5056469;28;20196;-95
2022/03/05 03:24:30;;;;;;;23.93;14.87;;;;;;;0.98;71.53;96925.78;5036738;28;20194;-94
2022/03/05 03:26:58;;;;;;;23.23;14.43;;;;;;;0.97;71.41;96926.66;5019172;28;20273;-91
2022/03/05 03:29:26;;;;;;;25.83;14.10;;;;;;;0.85;70.64;96912.31;5034529;28;20284;-91
2022/03/05 03:31:55;;;;;;;21.70;13.73;;;;;;;1.11;71.11;96909.50;5057277;28;20228;-90
2022/03/05 03:34:23;;;;;;;25.93;14.93;;;;;;;1.50;70.82;96945.59;5067142;28;20185;-92
2022/03/05 03:36:50;;;;;;;20.80;14.30;;;;;;;1.39;70.03;96916.81;5037271;28;20730;-92
2022/03/05 03:39:20;;;;;;;25.53;15.13;;;;;;;1.47;69.10;96909.91;5055197;28;20231;-93
2022/03/05 03:41:47;;;;;;;29.77;16.30;;;;;;;1.62;68.43;96935.25;5054028;28;20688;-92
2022/03/05 03:44:16;;;;;;;33.27;19.10;;;;;;;1.34;69.50;96923.66;5071884;28;20243;-94
2022/03/05 03:46:47;;;;;;;46.63;21.10;;;;;;;0.99;70.61;96905.38;5037650;28;20197;-92
2022/03/05 03:49:14;;;;;;;57.33;26.40;;;;;;;0.92;71.55;96896.09;5054966;28;20687;-93
2022/03/05 03:51:42;;;;;;;58.67;27.83;;;;;;;0.76;70.17;96861.47;5054739;28;20201;-93
2022/03/05 03:54:11;;;;;;;54.37;23.33;;;;;;;1.25;69.71;96943.34;5053799;28;20193;-93
2022/03/05 03:56:42;;;;;;;41.00;22.13;;;;;;;1.01;69.58;96905.38;5071623;28;20202;-94
2022/03/05 03:59:11;;;;;;;38.00;20.27;;;;;;;0.90;69.61;96868.94;5053227;28;20197;-92
2022/03/05 04:01:39;;;;;;;38.13;20.30;;;;;;;1.32;69.92;96920.28;5054665;28;20220;-90
2022/03/05 04:04:07;;;;;;;31.30;18.47;;;;;;;1.39;69.47;96913.41;5070611;28;20197;-92
2022/03/05 04:09:21;;;;;;;32.80;17.33;;;;;;;1.59;68.15;96934.41;5070756;28;20254;-91
2022/03/05 04:11:51;;;;;;;30.07;16.67;;;;;;;1.50;67.99;96904.78;5052460;28;20347;-92
2022/03/05 04:14:18;;;;;;;32.17;17.67;;;;;;;1.67;68.70;96952.19;5036345;28;20231;-92
2022/03/05 04:16:47;;;;;;;59.63;27.67;;;;;;;1.46;68.16;96949.03;5052828;28;20552;-91
2022/03/05 04:19:15;;;;;;;71.07;29.67;;;;;;;0.82;70.15;96928.47;5038441;28;20197;-91
2022/03/05 04:21:42;;;;;;;74.57;31.47;;;;;;;0.90;69.27;96936.06;5052875;28;20189;-91
2022/03/05 04:24:09;;;;;;;61.77;31.33;;;;;;;0.67;70.42;96943.94;5052759;28;20185;-90
2022/03/05 04:26:38;;;;;;;53.93;30.63;;;;;;;0.47;71.45;96933.06;5070275;28;20664;-92
2022/03/05 04:29:06;;;;;;;55.03;29.13;;;;;;;0.54;71.10;96944.03;5069544;28;20228;-92
2022/03/05 04:31:37;;;;;;;48.07;25.57;;;;;;;0.47;71.33;96934.75;5037961;28;20320;-91
2022/03/05 04:34:05;;;;;;;31.33;19.03;;;;;;;0.69;71.60;96956.66;5070812;28;20196;-90
2022/03/05 04:36:36;;;;;;;29.23;17.97;;;;;;;0.54;70.68;96913.47;5054417;28;20197;-91
2022/03/05 04:39:14;;;;;;;43.93;19.13;;;;;;;0.82;70.83;96963.31;5040770;28;20197;-92
2022/03/05 04:41:41;;;;;;;27.03;15.87;;;;;;;1.01;70.86;96969.09;5037731;28;20194;-94
2022/03/05 04:44:10;;;;;;;26.50;15.37;;;;;;;1.06;69.48;96967.34;5062667;28;20275;-94
2022/03/05 04:46:47;;;;;;;36.67;20.47;;;;;;;0.94;70.43;96942.81;5065670;28;20193;-94
2022/03/05 04:49:18;;;;;;;44.83;21.60;;;;;;;0.62;70.91;96898.94;5087726;28;20205;-92
2022/03/05 04:51:46;;;;;;;37.27;21.60;;;;;;;1.05;69.94;96963.94;5059547;28;20197;-93
2022/03/05 04:54:54;;;;;;;44.83;23.63;;;;;;;1.08;70.52;96966.47;5053614;28;20224;-92
2022/03/05 04:58:19;;;;;;;45.37;23.30;;;;;;;1.20;69.83;96979.09;5051494;28;20200;-91
2022/03/05 05:01:45;;;;;;;38.87;21.60;;;;;;;1.26;70.23;96971.38;5055134;28;20193;-91
2022/03/05 05:05:10;;;;;;;33.73;19.87;;;;;;;1.39;69.40;96978.03;5052322;28;20338;-96
2022/03/05 05:08:32;;;;;;;39.33;21.17;;;;;;;1.63;68.17;96976.88;5045501;28;20189;-91
2022/03/05 05:12:08;;;;;;;37.53;21.33;;;;;;;1.77;68.76;96977.59;5062426;28;20181;-90
2022/03/05 05:15:30;;;;;;;31.73;17.83;;;;;;;1.49;69.01;96966.00;5067987;28;20288;-90
2022/03/05 05:22:32;;;;;;;31.43;19.40;;;;;;;1.41;69.35;96993.31;5068252;28;20200;-92
2022/03/05 05:25:53;;;;;;;32.00;18.30;;;;;;;1.54;68.93;97003.38;5036141;28;20201;-91
2022/03/05 05:29:13;;;;;;;29.97;17.43;;;;;;;1.33;69.64;96985.75;5051374;28;20190;-91
2022/03/05 05:32:37;;;;;;;42.47;22.00;;;;;;;1.23;70.52;97007.13;5050642;28;20799;-91
2022/03/05 05:35:58;;;;;;;28.57;16.97;;;;;;;0.98;69.92;96992.91;5052861;28;20201;-92
2022/03/05 05:39:20;;;;;;;23.73;15.27;;;;;;;0.93;70.20;96991.28;5054621;28;20193;-90
2022/03/05 05:42:42;;;;;;;28.83;17.50;;;;;;;0.98;70.49;96987.81;5059870;28;20206;-92
2022/03/05 05:46:03;;;;;;;25.00;15.70;;;;;;;1.08;70.35;96997.06;5023352;28;20705;-92
2022/03/05 05:49:26;;;;;;;27.57;16.73;;;;;;;0.94;71.07;96975.09;5015306;28;20197;-91
2022/03/05 05:52:47;;;;;;;22.60;14.30;;;;;;;1.13;70.81;96972.38;5014640;28;20225;-91
2022/03/05 05:56:09;;;;;;;26.30;13.63;;;;;;;1.67;70.09;97025.34;5010013;28;20703;-90
2022/03/05 05:59:31;;;;;;;26.23;16.87;;;;;;;1.74;68.93;97030.38;5019455;28;20194;-92
2022/03/05 06:02:54;;;;;;;28.53;17.20;;;;;;;1.40;68.71;96944.00;5014929;28;20728;-91
2022/03/05 06:06:15;;;;;;;29.90;17.70;;;;;;;1.39;69.48;96918.50;5017324;28;20263;-92
2022/03/05 06:09:36;;;;;;;32.80;18.43;;;;;;;2.07;68.17;97028.25;5033851;28;20192;-91
2022/03/05 06:12:59;;;;;;;26.77;16.07;;;;;;;1.63;69.48;96985.41;5020054;28;20228;-92
2022/03/05 06:16:19;;;;;;;31.47;16.73;;;;;;;1.83;69.02;97040.47;4997899;28;20198;-91
2022/03/05 06:19:44;;;;;;;30.07;15.27;;;;;;;1.78;68.12;97026.91;5012849;28;20183;-91
2022/03/05 06:23:04;;;;;;;24.27;13.63;;;;;;;1.83;69.74;97041.34;5012860;28;20221;-89
2022/03/05 06:26:34;;;;;;;25.97;14.50;;;;;;;1.87;69.92;97052.34;4996464;28;20190;-93
2022/03/05 06:29:55;;;;;;;30.53;17.23;;;;;;;2.09;69.02;97051.22;4993283;28;20642;-92
2022/03/05 06:33:20;;;;;;;34.30;18.10;;;;;;;2.34;68.42;97056.00;4988638;28;20746;-92
2022/03/05 06:36:42;;;;;;;28.30;17.30;;;;;;;2.54;67.28;97055.69;5047014;28;20201;-92
2022/03/05 06:40:05;;;;;;;35.47;19.47;;;;;;;2.72;67.21;97052.06;4995915;28;20704;-92
2022/03/05 06:43:31;;;;;;;39.07;22.13;;;;;;;3.01;66.51;97052.44;5012203;28;20288;-92
2022/03/05 06:46:53;;;;;;;35.97;20.97;;;;;;;3.10;66.19;97073.59;5028711;28;20233;-92
2022/03/05 06:50:15;;;;;;;44.37;23.97;;;;;;;3.14;66.85;97067.56;5014758;28;20186;-93
2022/03/05 06:53:38;;;;;;;39.67;23.70;;;;;;;3.27;68.63;97069.06;5007882;28;20223;-92
2022/03/05 06:57:01;;;;;;;46.80;27.20;;;;;;;3.23;67.45;97069.13;5003599;28;20237;-89
2022/03/05 07:00:22;;;;;;;52.17;26.80;;;;;;;3.26;66.98;97062.22;5034228;28;20190;-91
2022/03/05 07:03:40;;;;;;;45.77;25.10;;;;;;;2.84;66.90;96955.53;5021257;28;20218;-94
2022/03/05 07:06:37;;;;;;;44.50;26.77;;;;;;;3.34;66.22;97010.91;5027021;28;20194;-93
2022/03/05 07:09:15;;;;;;;46.03;27.07;;;;;;;3.32;65.89;97004.16;5014491;28;20281;-95
2022/03/05 07:11:56;;;;;;;51.10;26.07;;;;;;;3.58;65.96;97030.09;5001803;28;20857;-95
2022/03/05 07:14:29;;;;;;;42.50;23.80;;;;;;;3.81;66.19;97077.44;5014464;28;20199;-94
2022/03/05 07:17:17;;;;;;;39.40;22.33;;;;;;;3.91;65.88;97071.31;5021223;28;20199;-93
2022/03/05 07:19:50;;;;;;;39.97;21.60;;;;;;;4.06;65.33;97073.53;5011611;28;20203;-92
2022/03/05 07:22:23;;;;;;;39.77;22.47;;;;;;;4.24;64.87;97074.91;4999265;28;20198;-90
2022/03/05 07:24:54;;;;;;;41.43;22.03;;;;;;;4.50;64.31;97075.19;5041403;28;20189;-90
2022/03/05 07:28:11;;;;;;;45.53;23.93;;;;;;;4.49;63.27;97052.16;5009120;28;20195;-94
2022/03/05 07:31:08;;;;;;;42.87;23.60;;;;;;;4.85;63.39;97075.25;5014666;28;20205;-92
2022/03/05 07:33:53;;;;;;;32.27;18.93;;;;;;;5.19;62.12;97079.59;5056072;28;20239;-92
2022/03/05 07:36:27;;;;;;;29.07;17.70;;;;;;;5.19;62.50;97080.47;5072278;28;20645;-94
2022/03/05 07:38:57;;;;;;;26.37;17.00;;;;;;;4.73;61.52;96987.47;5039403;28;20191;-94
2022/03/05 07:46:34;;;;;;;25.93;16.10;;;;;;;5.30;59.42;97091.28;4937381;29;20203;-96
2022/03/05 07:50:39;;;;;;;34.50;18.77;;;;;;;5.40;59.55;97094.50;4893649;29;20777;-94
2022/03/05 07:54:44;;;;;;;25.33;16.73;;;;;;;5.09;58.07;97088.41;4914599;29;20271;-94
2022/03/05 08:10:32;;;;;;;28.93;17.23;;;;;;;5.40;56.71;97067.06;4961028;29;20600;-93
2022/03/05 08:15:04;;;;;;;25.40;16.40;;;;;;;5.80;56.11;97082.31;4967782;29;20228;-95
2022/03/05 08:18:46;;;;;;;24.70;16.73;;;;;;;5.93;56.23;97093.13;5014031;28;20196;-96
2022/03/05 08:21:44;;;;;;;28.17;17.07;;;;;;;5.38;55.11;96984.09;4970709;28;20209;-95
2022/03/05 08:31:03;;;;;;;24.30;15.07;;;;;;;6.55;53.04;97089.66;4877187;29;20578;-96
2022/03/05 08:34:35;;;;;;;27.43;14.60;;;;;;;6.47;52.23;97068.47;4859349;29;20241;-96
2022/03/05 08:38:24;;;;;;;24.00;15.90;;;;;;;6.57;51.77;97073.28;4804030;29;20201;-94
2022/03/05 08:41:53;;;;;;;28.27;18.20;;;;;;;6.76;52.51;97090.75;4804431;29;20207;-93
2022/03/05 08:46:13;;;;;;;25.90;16.67;;;;;;;6.98;50.39;97084.06;4729319;30;20214;-95
2022/03/05 08:50:39;;;;;;;21.97;13.00;;;;;;;7.13;48.38;97083.59;4696867;30;20270;-95
2022/03/05 08:54:33;;;;;;;20.70;13.67;;;;;;;6.73;49.33;97008.50;4683855;30;20219;-95
2022/03/05 08:57:57;;;;;;;23.10;14.10;;;;;;;7.37;49.29;97085.38;4756439;30;20208;-94
2022/03/05 09:01:14;;;;;;;24.33;14.57;;;;;;;6.86;49.65;96973.78;4783920;29;20216;-93
2022/03/05 09:09:40;;;;;;;20.13;12.60;;;;;;;7.83;48.12;97077.78;4854557;29;20228;-94
2022/03/05 09:13:40;;;;;;;22.90;12.70;;;;;;;7.69;48.65;97082.56;4829500;29;20236;-94
2022/03/05 09:17:09;;;;;;;20.93;13.20;;;;;;;7.46;49.68;97074.75;4843961;29;20213;-96
2022/03/05 09:21:01;;;;;;;18.93;12.33;;;;;;;7.05;49.84;97044.34;4866646;29;20193;-94
2022/03/05 09:24:43;;;;;;;19.93;11.67;;;;;;;7.32;51.45;97087.25;4900203;29;20825;-95
2022/03/05 09:28:26;;;;;;;18.87;13.17;;;;;;;7.31;52.02;97080.44;4912299;29;20910;-93
2022/03/05 09:32:00;;;;;;;18.87;12.87;;;;;;;7.00;52.98;97090.84;4924991;29;20205;-93
2022/03/05 09:35:35;;;;;;;22.03;12.10;;;;;;;7.00;52.98;97084.84;4905844;29;20258;-94
2022/03/05 09:39:33;;;;;;;17.80;11.60;;;;;;;7.05;51.55;97088.97;4885613;29;20325;-94
2022/03/05 09:47:32;;;;;;;21.93;13.10;;;;;;;7.10;51.19;97099.97;4892605;29;20264;-94
2022/03/05 09:51:45;;;;;;;17.57;11.80;;;;;;;6.82;52.08;97103.44;4831041;29;20217;-93
2022/03/05 09:56:13;;;;;;;16.33;11.57;;;;;;;6.95;53.08;97104.75;4891136;29;20206;-91
2022/03/05 10:00:36;;;;;;;20.17;12.10;;;;;;;7.22;51.93;97101.31;4795596;29;20208;-90
2022/03/05 10:05:16;;;;;;;89.23;21.37;;;;;;;7.56;49.91;97096.78;4792084;30;20234;-91
2022/03/05 10:08:17;;;;;;;21.20;13.93;;;;;;;7.71;48.57;97098.81;4784639;30;20260;-90
2022/03/05 10:10:54;;;;;;;23.17;13.33;;;;;;;7.72;48.42;97063.59;4858965;29;20203;-93
2022/03/05 10:13:42;;;;;;;16.23;11.47;;;;;;;7.97;49.04;97091.06;4845544;29;20249;-92
2022/03/05 10:17:01;;;;;;;19.53;12.37;;;;;;;7.95;47.83;97095.44;4861154;29;20252;-91
2022/03/05 10:19:41;;;;;;;21.23;13.00;;;;;;;7.88;49.06;97067.31;4856629;29;20215;-90
2022/03/05 10:22:11;;;;;;;20.43;12.70;;;;;;;7.95;47.93;97087.69;4855214;29;20200;-91
2022/03/05 10:24:46;;;;;;;22.63;15.27;;;;;;;8.31;48.62;97087.28;4842685;29;20268;-96
2022/03/05 10:27:31;;;;;;;19.93;13.27;;;;;;;8.26;48.20;97073.75;4883544;29;20247;-90
2022/03/05 10:30:28;;;;;;;20.53;13.70;;;;;;;7.99;47.44;97060.91;4916500;29;20682;-95
2022/03/05 10:33:03;;;;;;;19.97;12.50;;;;;;;7.88;47.61;97062.16;4954937;28;20235;-94
2022/03/05 10:35:48;;;;;;;25.03;15.97;;;;;;;8.30;48.26;97086.47;4966694;28;20338;-95
2022/03/05 10:39:09;;;;;;;26.20;16.33;;;;;;;8.46;46.95;97079.00;4943002;28;20673;-92
2022/03/05 10:41:55;;;;;;;21.00;12.90;;;;;;;7.81;46.98;96934.41;4981038;28;20242;-90
2022/03/05 10:44:34;;;;;;;21.37;14.47;;;;;;;8.35;46.20;97003.72;4963222;28;20196;-93
2022/03/05 10:48:29;;;;;;;15.87;11.47;;;;;;;8.24;47.10;97072.00;4975771;28;20206;-91
2022/03/05 10:51:16;;;;;;;21.57;12.83;;;;;;;7.87;48.21;97043.25;5021753;28;20204;-93
2022/03/05 10:53:49;;;;;;;20.33;13.27;;;;;;;7.69;47.75;97020.72;5020216;28;20241;-94
2022/03/05 10:56:36;;;;;;;19.90;13.90;;;;;;;7.72;48.17;96992.28;5026918;28;20194;-92
2022/03/05 10:59:16;;;;;;;18.97;11.97;;;;;;;8.20;47.61;97057.53;5030227;28;20201;-94
2022/03/05 11:02:05;;;;;;;15.87;12.27;;;;;;;8.19;47.30;97037.81;5030663;28;20202;-94
2022/03/05 11:04:54;;;;;;;15.87;11.40;;;;;;;8.03;48.03;97023.81;5026122;28;20201;-93
2022/03/05 11:07:55;;;;;;;18.93;12.93;;;;;;;8.30;47.84;97052.09;5021037;28;20190;-92
2022/03/05 11:15:16;;;;;;;20.93;11.90;;;;;;;8.36;47.37;97008.84;5073788;28;20198;-92
2022/03/05 11:22:33;;;;;;;21.67;12.17;;;;;;;8.52;47.49;97037.50;4987849;28;20318;-91
2022/03/05 11:26:46;;;;;;;19.77;12.23;;;;;;;8.53;47.59;97034.84;4990915;28;20204;-93
2022/03/05 11:30:03;;;;;;;20.67;13.03;;;;;;;8.33;47.73;97016.69;4954629;28;20206;-92
2022/03/05 11:36:36;;;;;;;20.83;14.93;;;;;;;8.08;48.86;97011.56;4988390;28;20558;-91
2022/03/05 11:39:37;;;;;;;21.97;14.27;;;;;;;8.30;49.99;97040.03;4972689;28;20227;-93
2022/03/05 11:42:36;;;;;;;20.80;13.47;;;;;;;7.74;48.95;96935.50;4976143;28;20242;-92
2022/03/05 11:45:32;;;;;;;20.47;14.33;;;;;;;8.12;48.81;97028.59;5001694;28;20203;-93
2022/03/05 11:48:39;;;;;;;23.43;14.17;;;;;;;7.81;49.98;96996.25;4980541;28;20196;-93
2022/03/05 11:51:31;;;;;;;19.37;13.60;;;;;;;7.80;49.97;97016.03;4954253;28;20204;-94
2022/03/05 11:58:42;;;;;;;19.97;11.90;;;;;;;8.04;49.01;96994.53;4964138;28;20355;-91
2022/03/05 12:02:39;;;;;;;18.60;12.40;;;;;;;8.13;48.73;97012.25;5003492;28;20216;-92
2022/03/05 12:05:48;;;;;;;18.20;12.47;;;;;;;8.11;48.52;97000.31;4996971;28;20202;-92
2022/03/05 12:09:11;;;;;;;18.83;13.10;;;;;;;8.34;48.22;96991.75;5035542;28;20206;-93
2022/03/05 12:12:28;;;;;;;19.73;13.27;;;;;;;8.47;48.01;96995.56;5036185;28;20198;-91
2022/03/05 12:15:15;;;;;;;21.50;13.17;;;;;;;8.19;48.50;96964.75;5012888;28;20244;-93
2022/03/05 12:18:56;;;;;;;17.67;12.10;;;;;;;8.23;48.08;97003.28;5046417;28;20232;-94
2022/03/05 12:21:54;;;;;;;14.97;10.57;;;;;;;8.06;47.89;97005.63;5035188;28;20204;-94
2022/03/05 12:25:25;;;;;;;14.93;11.30;;;;;;;8.21;48.89;96981.84;5026480;28;20198;-96
2022/03/05 12:28:31;;;;;;;16.10;11.47;;;;;;;8.38;48.13;96986.41;5035030;28;20262;-95
2022/03/05 12:31:38;;;;;;;21.10;13.40;;;;;;;7.77;48.57;96853.75;5028356;28;20228;-96
2022/03/05 12:35:30;;;;;;;19.63;13.20;;;;;;;8.61;48.06;96980.38;5049345;28;20240;-95
2022/03/05 12:39:35;;;;;;;19.87;13.53;;;;;;;8.61;47.83;96981.22;5064761;28;20216;-93
2022/03/05 12:42:53;;;;;;;22.77;13.90;;;;;;;8.51;48.14;96976.47;5063364;28;20630;-94
2022/03/05 12:52:21;;;;;;;20.83;13.37;;;;;;;7.64;52.25;96960.78;5074956;28;20200;-94
2022/03/05 12:56:01;;;;;;;17.60;12.07;;;;;;;7.59;53.26;96965.25;4925557;29;20240;-93
2022/03/05 12:59:53;;;;;;;19.73;12.73;;;;;;;7.65;53.61;96987.38;4916048;29;20274;-94
2022/03/05 13:06:13;;;;;;;18.77;13.17;;;;;;;7.71;54.14;96988.00;4899988;29;20202;-96
2022/03/05 13:09:19;;;;;;;19.17;13.30;;;;;;;7.63;54.99;96978.84;4916214;29;20228;-95
2022/03/05 13:12:59;;;;;;;19.37;12.87;;;;;;;7.76;55.10;96983.53;4933394;29;20246;-95
2022/03/05 13:16:00;;;;;;;21.53;12.20;;;;;;;7.73;55.11;96983.63;4933381;29;20195;-94
2022/03/05 13:19:22;;;;;;;25.23;14.77;;;;;;;7.66;54.97;96930.63;4914890;29;20194;-92
2022/03/05 13:22:34;;;;;;;22.80;14.60;;;;;;;7.77;54.27;96938.81;4902507;29;20294;-93
2022/03/05 13:25:28;;;;;;;30.23;18.67;;;;;;;7.96;55.08;96978.50;4949245;28;20207;-93
2022/03/05 13:28:26;;;;;;;17.37;11.70;;;;;;;7.85;54.37;96946.28;4984913;28;20199;-93
2022/03/05 13:32:35;;;;;;;20.23;13.20;;;;;;;8.01;53.98;96943.06;5007676;28;20207;-94
2022/03/05 13:35:46;;;;;;;16.87;12.00;;;;;;;8.21;55.70;96976.69;4949720;28;20247;-92
2022/03/05 13:38:28;;;;;;;16.70;11.13;;;;;;;7.89;53.67;96894.53;4967768;28;20279;-95
2022/03/05 13:41:09;;;;;;;14.97;10.83;;;;;;;8.26;53.12;96948.19;4965947;28;20199;-94
2022/03/05 13:43:41;;;;;;;25.60;13.03;;;;;;;8.29;53.68;96957.53;4994465;28;20192;-91
2022/03/05 13:46:10;;;;;;;15.33;11.50;;;;;;;8.36;52.53;96961.56;4977480;28;20195;-89
2022/03/05 13:48:48;;;;;;;17.57;12.40;;;;;;;8.32;53.09;96968.59;4972790;28;20205;-92
2022/03/05 13:51:39;;;;;;;17.83;11.60;;;;;;;8.39;52.88;96964.03;4986928;28;20208;-94
2022/03/05 13:54:35;;;;;;;19.37;14.13;;;;;;;8.36;52.67;96964.16;4986297;28;20232;-94
2022/03/05 13:57:11;;;;;;;17.77;11.63;;;;;;;8.40;52.94;96968.28;4999644;28;20196;-92
2022/03/05 13:59:46;;;;;;;14.47;10.13;;;;;;;7.93;52.42;96890.94;4971781;28;20703;-93
2022/03/05 14:02:18;;;;;;;17.53;11.67;;;;;;;8.19;52.69;96957.00;4952417;28;20226;-92
2022/03/05 14:05:23;;;;;;;21.57;14.13;;;;;;;8.01;53.46;96931.91;4973122;28;21025;-91
2022/03/05 14:07:59;;;;;;;17.37;11.87;;;;;;;8.06;52.69;96927.41;4981128;28;20278;-93
2022/03/05 14:10:58;;;;;;;18.77;12.13;;;;;;;8.05;52.81;96947.22;4991798;28;20920;-93
2022/03/05 14:13:31;;;;;;;18.53;12.47;;;;;;;7.98;53.66;96947.50;5007648;28;20277;-93
2022/03/05 14:16:38;;;;;;;24.23;15.50;;;;;;;8.06;53.96;96951.47;4981187;28;20198;-92
2022/03/05 14:19:36;;;;;;;22.30;14.70;;;;;;;8.11;53.63;96964.19;5029469;28;20207;-94
2022/03/05 14:22:12;;;;;;;17.87;12.27;;;;;;;8.07;53.09;96950.59;4998851;28;20670;-93
2022/03/05 14:25:06;;;;;;;19.47;13.70;;;;;;;7.86;52.74;96915.28;5013901;28;20190;-93
2022/03/05 14:27:57;;;;;;;21.60;14.07;;;;;;;8.10;53.12;96950.44;4998417;28;20254;-91
2022/03/05 14:31:30;;;;;;;20.07;13.43;;;;;;;7.97;52.43;96915.72;5025558;28;20195;-90
2022/03/05 14:34:33;;;;;;;20.70;14.27;;;;;;;8.08;52.55;96941.94;5016479;28;20227;-92
2022/03/05 14:37:17;;;;;;;18.30;14.03;;;;;;;8.07;52.19;96948.00;4985394;28;20231;-94